createdAt,value
2018-09-14T00:01:56.542Z,15.96
2018-09-14T00:04:27.517Z,16.00
2018-09-14T00:07:05.236Z,16.02
2018-09-14T00:09:36.404Z,16.17
2018-09-14T00:12:07.689Z,16.20
2018-09-14T00:14:38.570Z,16.11
2018-09-14T00:17:09.579Z,16.19
2018-09-14T00:19:40.516Z,16.18
2018-09-14T00:22:11.516Z,16.13
2018-09-14T00:24:43.212Z,16.15
2018-09-14T00:27:14.399Z,16.15
2018-09-14T00:29:45.512Z,16.03
2018-09-14T00:32:16.524Z,16.18
2018-09-14T00:34:47.506Z,16.22
2018-09-14T00:37:18.503Z,16.08
2018-09-14T00:39:49.490Z,15.99
2018-09-14T00:42:20.531Z,15.94
2018-09-14T00:44:51.806Z,15.88
2018-09-14T00:47:22.625Z,15.97
2018-09-14T00:49:53.512Z,15.85
2018-09-14T00:52:24.526Z,15.94
2018-09-14T00:54:55.496Z,15.85
2018-09-14T00:57:26.513Z,15.93
2018-09-14T00:59:57.521Z,15.98
2018-09-14T01:02:28.480Z,16.02
2018-09-14T01:04:59.506Z,15.87
2018-09-14T01:07:30.504Z,15.91
2018-09-14T01:10:01.510Z,15.85
2018-09-14T01:12:32.522Z,15.84
2018-09-14T01:15:03.540Z,15.79
2018-09-14T01:17:34.519Z,15.82
2018-09-14T01:20:05.705Z,15.77
2018-09-14T01:22:36.561Z,15.73
2018-09-14T01:25:07.513Z,15.75
2018-09-14T01:27:38.522Z,15.78
2018-09-14T01:30:09.521Z,15.72
2018-09-14T01:32:40.506Z,15.88
2018-09-14T01:35:16.681Z,15.82
2018-09-14T01:37:47.587Z,15.79
2018-09-14T01:40:18.537Z,15.75
2018-09-14T01:42:49.513Z,15.84
2018-09-14T01:45:20.490Z,15.80
2018-09-14T01:47:51.514Z,15.90
2018-09-14T01:50:22.493Z,15.70
2018-09-14T01:52:53.521Z,15.75
2018-09-14T01:55:24.494Z,15.79
2018-09-14T01:57:55.525Z,15.78
2018-09-14T02:00:26.485Z,15.70
2018-09-14T02:02:57.508Z,15.82
2018-09-14T02:05:28.490Z,15.81
2018-09-14T02:07:59.546Z,15.80
2018-09-14T02:10:30.500Z,15.68
2018-09-14T02:13:01.526Z,15.69
2018-09-14T02:15:32.484Z,15.65
2018-09-14T02:18:03.523Z,15.76
2018-09-14T02:20:34.518Z,15.75
2018-09-14T02:23:05.503Z,15.67
2018-09-14T02:25:36.546Z,15.73
2018-09-14T02:28:07.788Z,15.70
2018-09-14T02:30:38.637Z,15.63
2018-09-14T02:33:09.561Z,15.66
2018-09-14T02:35:40.501Z,15.57
2018-09-14T02:38:11.501Z,15.68
2018-09-14T02:40:42.489Z,15.57
2018-09-14T02:43:13.516Z,15.53
2018-09-14T02:45:44.504Z,15.63
2018-09-14T02:48:15.562Z,15.61
2018-09-14T02:50:46.497Z,15.54
2018-09-14T02:53:17.528Z,15.60
2018-09-14T02:55:48.501Z,15.55
2018-09-14T02:58:19.508Z,15.63
2018-09-14T03:00:51.192Z,15.63
2018-09-14T03:03:22.573Z,15.59
2018-09-14T03:05:53.506Z,15.52
2018-09-14T03:08:24.497Z,15.50
2018-09-14T03:10:55.486Z,15.54
2018-09-14T03:13:26.514Z,15.55
2018-09-14T03:15:57.522Z,15.56
2018-09-14T03:18:28.529Z,15.49
2018-09-14T03:20:59.494Z,15.51
2018-09-14T03:23:30.538Z,15.44
2018-09-14T03:26:01.497Z,15.47
2018-09-14T03:28:32.517Z,15.49
2018-09-14T03:31:03.514Z,15.47
2018-09-14T03:33:34.533Z,15.42
2018-09-14T03:36:05.523Z,15.43
2018-09-14T03:38:36.521Z,15.46
2018-09-14T03:41:07.519Z,15.48
2018-09-14T03:43:38.511Z,15.36
2018-09-14T03:46:09.510Z,15.34
2018-09-14T03:48:40.522Z,15.35
2018-09-14T03:51:11.490Z,15.39
2018-09-14T03:53:42.509Z,15.42
2018-09-14T03:56:13.491Z,15.36
2018-09-14T03:58:44.496Z,15.30
2018-09-14T04:01:15.493Z,15.31
2018-09-14T04:03:46.509Z,15.25
2018-09-14T04:06:17.524Z,15.20
2018-09-14T04:08:48.487Z,15.24
2018-09-14T04:11:19.477Z,15.26
2018-09-14T04:13:50.529Z,15.19
2018-09-14T04:16:21.498Z,15.19
2018-09-14T04:18:58.508Z,15.14
2018-09-14T04:21:30.281Z,15.16
2018-09-14T04:24:01.387Z,15.14
2018-09-14T04:26:32.462Z,15.23
2018-09-14T04:29:03.513Z,15.14
2018-09-14T04:31:34.500Z,15.20
2018-09-14T04:34:05.512Z,15.16
2018-09-14T04:36:36.513Z,15.21
2018-09-14T04:39:11.027Z,15.20
2018-09-14T04:41:42.294Z,15.13
2018-09-14T04:44:13.450Z,14.99
2018-09-14T04:46:44.508Z,15.11
2018-09-14T04:49:15.534Z,15.11
2018-09-14T04:51:46.480Z,15.10
2018-09-14T04:54:17.553Z,15.08
2018-09-14T04:56:48.482Z,15.04
2018-09-14T04:59:19.495Z,15.15
2018-09-14T05:01:50.515Z,15.21
2018-09-14T05:04:21.519Z,15.17
2018-09-14T05:06:52.522Z,15.04
2018-09-14T05:09:23.508Z,15.02
2018-09-14T05:11:54.493Z,15.06
2018-09-14T05:14:25.514Z,15.05
2018-09-14T05:16:56.620Z,14.98
2018-09-14T05:19:27.503Z,15.03
2018-09-14T05:21:58.504Z,15.13
2018-09-14T05:24:29.578Z,15.11
2018-09-14T05:27:00.554Z,15.05
2018-09-14T05:29:31.514Z,15.10
2018-09-14T05:32:02.518Z,15.00
2018-09-14T05:34:33.554Z,15.04
2018-09-14T05:37:04.534Z,15.06
2018-09-14T05:39:35.518Z,15.01
2018-09-14T05:42:06.561Z,15.06
2018-09-14T05:44:37.509Z,15.04
2018-09-14T05:47:09.024Z,15.03
2018-09-14T05:49:40.378Z,15.04
2018-09-14T05:52:11.529Z,15.87
2018-09-14T05:54:42.496Z,15.11
2018-09-14T05:57:13.480Z,15.11
2018-09-14T05:59:44.509Z,15.11
2018-09-14T06:02:15.490Z,15.12
2018-09-14T06:04:46.501Z,15.00
2018-09-14T06:07:17.498Z,15.10
2018-09-14T06:09:49.557Z,15.11
2018-09-14T06:12:20.676Z,15.21
2018-09-14T06:14:51.570Z,15.20
2018-09-14T06:17:22.573Z,15.25
2018-09-14T06:19:53.519Z,15.41
2018-09-14T06:22:24.599Z,15.22
2018-09-14T06:24:55.481Z,15.20
2018-09-14T06:27:26.507Z,15.25
2018-09-14T06:29:57.577Z,15.52
2018-09-14T06:32:28.877Z,15.28
2018-09-14T06:35:00.387Z,15.28
2018-09-14T06:37:31.583Z,15.27
2018-09-14T06:40:02.531Z,15.18
2018-09-14T06:42:33.492Z,15.31
2018-09-14T06:45:04.549Z,15.43
2018-09-14T06:47:35.482Z,15.64
2018-09-14T06:50:06.597Z,15.61
2018-09-14T06:52:37.510Z,15.34
2018-09-14T06:55:08.525Z,15.54
2018-09-14T06:57:39.510Z,15.61
2018-09-14T07:00:10.728Z,15.83
2018-09-14T07:02:41.571Z,15.77
2018-09-14T07:05:12.481Z,15.92
2018-09-14T07:07:43.483Z,15.88
2018-09-14T07:10:14.514Z,15.78
2018-09-14T07:12:45.476Z,15.93
2018-09-14T07:15:16.484Z,15.98
2018-09-14T07:17:47.469Z,16.31
2018-09-14T07:20:18.511Z,15.96
2018-09-14T07:22:49.500Z,16.16
2018-09-14T07:25:20.552Z,16.11
2018-09-14T07:27:51.568Z,16.30
2018-09-14T07:30:22.531Z,16.16
2018-09-14T07:32:53.510Z,16.14
2018-09-14T07:35:24.530Z,16.34
2018-09-14T07:37:55.499Z,16.23
2018-09-14T07:40:26.603Z,16.44
2018-09-14T07:42:57.619Z,16.34
2018-09-14T07:45:28.588Z,16.45
2018-09-14T07:47:59.652Z,16.28
2018-09-14T07:53:49.398Z,16.44
2018-09-14T07:56:20.549Z,16.59
2018-09-14T07:58:51.579Z,16.17
2018-09-14T08:01:22.632Z,16.13
2018-09-14T08:03:53.617Z,16.32
2018-09-14T08:06:24.599Z,16.45
2018-09-14T08:08:55.581Z,16.34
2018-09-14T08:11:26.605Z,16.72
2018-09-14T08:13:57.582Z,16.60
2018-09-14T08:16:28.586Z,17.02
2018-09-14T08:18:59.622Z,17.17
2018-09-14T08:21:30.652Z,17.21
2018-09-14T08:24:01.565Z,17.54
2018-09-14T08:26:32.520Z,17.41
2018-09-14T08:29:03.547Z,17.80
2018-09-14T08:31:34.563Z,17.91
2018-09-14T08:34:05.597Z,17.84
2018-09-14T08:36:36.664Z,17.87
2018-09-14T08:39:12.502Z,18.06
2018-09-14T08:41:43.547Z,17.97
2018-09-14T08:44:14.546Z,18.17
2018-09-14T08:46:45.641Z,18.80
2018-09-14T08:49:16.619Z,18.57
2018-09-14T08:51:47.608Z,18.64
2018-09-14T08:54:18.581Z,18.63
2018-09-14T08:56:49.554Z,18.66
2018-09-14T08:59:20.483Z,18.83
2018-09-14T09:01:51.554Z,18.87
2018-09-14T09:04:22.606Z,18.79
2018-09-14T09:06:53.588Z,18.68
2018-09-14T09:09:24.583Z,18.43
2018-09-14T09:11:55.567Z,18.56
2018-09-14T09:14:26.537Z,18.67
2018-09-14T09:16:57.589Z,18.74
2018-09-14T09:19:28.719Z,18.63
2018-09-14T09:21:59.653Z,19.32
2018-09-14T09:24:30.611Z,19.54
2018-09-14T09:27:02.042Z,19.47
2018-09-14T09:29:33.485Z,18.97
2018-09-14T09:32:04.522Z,19.90
2018-09-14T09:34:35.509Z,19.85
2018-09-14T09:37:06.509Z,19.74
2018-09-14T09:39:37.493Z,20.10
2018-09-14T09:42:08.546Z,19.69
2018-09-14T09:44:39.581Z,19.89
2018-09-14T09:47:10.635Z,20.34
2018-09-14T09:49:41.566Z,20.43
2018-09-14T09:52:13.409Z,20.31
2018-09-14T09:54:44.509Z,20.18
2018-09-14T09:57:15.545Z,19.79
2018-09-14T09:59:46.549Z,19.97
2018-09-14T10:02:22.764Z,20.52
2018-09-14T10:04:58.633Z,20.19
2018-09-14T10:07:29.561Z,20.54
2018-09-14T10:10:00.522Z,20.22
2018-09-14T10:12:31.577Z,20.46
2018-09-14T10:15:02.538Z,20.91
2018-09-14T10:17:33.558Z,20.79
2018-09-14T10:20:04.679Z,20.84
2018-09-14T10:22:35.585Z,20.78
2018-09-14T10:25:06.533Z,20.88
2018-09-14T10:27:37.543Z,20.82
2018-09-14T10:30:08.488Z,20.95
2018-09-14T10:32:39.501Z,21.49
2018-09-14T10:35:10.528Z,21.51
2018-09-14T10:37:41.693Z,21.18
2018-09-14T10:40:13.423Z,21.75
2018-09-14T10:42:45.331Z,21.36
2018-09-14T10:45:16.496Z,21.69
2018-09-14T10:47:52.475Z,21.84
2018-09-14T10:50:23.498Z,22.03
2018-09-14T10:52:54.567Z,22.08
2018-09-14T10:55:25.581Z,21.20
2018-09-14T10:57:56.586Z,22.07
2018-09-14T11:00:28.478Z,21.89
2018-09-14T11:02:59.518Z,22.85
2018-09-14T11:05:30.583Z,23.09
2018-09-14T11:08:02.318Z,23.13
2018-09-14T11:10:33.397Z,22.68
2018-09-14T11:13:05.494Z,23.65
2018-09-14T11:15:36.539Z,23.35
2018-09-14T11:18:07.679Z,23.69
2018-09-14T11:20:38.875Z,24.61
2018-09-14T11:23:10.285Z,23.76
2018-09-14T11:25:41.690Z,24.43
2018-09-14T11:28:17.564Z,25.64
2018-09-14T11:30:48.588Z,24.66
2018-09-14T11:33:19.662Z,23.86
2018-09-14T11:38:35.595Z,25.50
2018-09-14T11:43:49.570Z,25.00
2018-09-14T11:46:21.511Z,24.74
2018-09-14T11:48:52.699Z,24.56
2018-09-14T11:51:23.615Z,25.85
2018-09-14T11:53:54.588Z,25.52
2018-09-14T11:56:25.592Z,24.83
2018-09-14T11:58:57.694Z,23.78
2018-09-14T12:01:30.466Z,23.68
2018-09-14T12:04:02.294Z,24.49
2018-09-14T12:06:33.459Z,24.41
2018-09-14T12:09:07.580Z,23.90
2018-09-14T12:11:40.012Z,23.38
2018-09-14T12:14:12.556Z,23.84
2018-09-14T12:16:44.488Z,23.37
2018-09-14T12:19:16.723Z,23.46
2018-09-14T12:21:48.551Z,23.40
2018-09-14T12:24:20.339Z,23.21
2018-09-14T12:26:51.394Z,23.47
2018-09-14T12:29:22.574Z,23.64
2018-09-14T12:31:53.746Z,23.41
2018-09-14T12:34:24.642Z,23.02
2018-09-14T12:36:55.655Z,22.69
2018-09-14T12:39:26.627Z,22.77
2018-09-14T12:41:57.686Z,23.02
2018-09-14T12:44:28.694Z,23.20
2018-09-14T12:46:59.618Z,22.63
2018-09-14T12:49:30.766Z,22.48
2018-09-14T12:52:01.745Z,22.79
2018-09-14T12:54:32.734Z,22.53
2018-09-14T12:57:03.613Z,22.21
2018-09-14T12:59:35.292Z,22.72
2018-09-14T13:02:06.395Z,22.68
2018-09-14T13:04:37.665Z,22.46
2018-09-14T13:07:08.642Z,22.15
2018-09-14T13:09:39.546Z,22.16
2018-09-14T13:12:10.600Z,22.41
2018-09-14T13:14:41.875Z,22.20
2018-09-14T13:17:13.788Z,22.10
2018-09-14T13:19:44.738Z,22.24
2018-09-14T13:22:15.617Z,22.09
2018-09-14T13:24:47.260Z,22.35
2018-09-14T13:27:17.437Z,22.46
2018-09-14T13:29:48.508Z,22.65
2018-09-14T13:32:19.529Z,22.54
2018-09-14T13:34:50.625Z,22.49
2018-09-14T13:37:21.573Z,23.01
2018-09-14T13:39:52.549Z,24.31
2018-09-14T13:42:23.576Z,24.01
2018-09-14T13:44:54.538Z,23.59
2018-09-14T13:47:25.590Z,23.34
2018-09-14T13:49:56.721Z,23.92
2018-09-14T13:52:27.715Z,24.52
2018-09-14T13:54:58.683Z,24.23
2018-09-14T13:57:29.576Z,24.94
2018-09-14T14:00:00.575Z,25.43
2018-09-14T14:02:31.570Z,25.60
2018-09-14T14:05:03.494Z,25.78
2018-09-14T14:07:34.549Z,26.33
2018-09-14T14:10:05.799Z,26.13
2018-09-14T14:12:37.199Z,25.32
2018-09-14T14:15:08.450Z,24.31
2018-09-14T14:17:39.792Z,25.00
2018-09-14T14:20:10.689Z,24.95
2018-09-14T14:22:42.056Z,24.55
2018-09-14T14:25:13.481Z,24.51
2018-09-14T14:27:44.771Z,24.42
2018-09-14T14:30:16.032Z,24.59
2018-09-14T14:32:47.386Z,24.53
2018-09-14T14:35:19.048Z,24.55
2018-09-14T14:37:50.510Z,24.46
2018-09-14T14:40:21.602Z,24.32
2018-09-14T14:42:52.569Z,24.15
2018-09-14T14:45:23.622Z,24.40
2018-09-14T14:47:54.706Z,24.22
2018-09-14T14:50:25.619Z,23.92
2018-09-14T14:52:56.733Z,23.88
2018-09-14T14:55:27.699Z,23.94
2018-09-14T14:57:58.602Z,23.60
2018-09-14T15:00:29.598Z,23.56
2018-09-14T15:03:00.713Z,23.25
2018-09-14T15:05:31.851Z,23.16
2018-09-14T15:08:03.025Z,23.26
2018-09-14T15:10:34.414Z,23.10
2018-09-14T15:13:05.527Z,23.13
2018-09-14T15:15:36.548Z,22.92
2018-09-14T15:18:07.554Z,22.98
2018-09-14T15:20:38.567Z,23.01
2018-09-14T15:23:09.505Z,22.89
2018-09-14T15:25:40.540Z,22.80
2018-09-14T15:28:11.497Z,22.73
2018-09-14T15:30:42.736Z,22.74
2018-09-14T15:33:13.681Z,22.56
2018-09-14T15:35:44.497Z,22.70
2018-09-14T15:38:15.489Z,22.69
2018-09-14T15:40:46.587Z,22.48
2018-09-14T15:43:17.502Z,22.61
2018-09-14T15:45:48.516Z,22.53
2018-09-14T15:48:19.480Z,22.55
2018-09-14T15:50:50.473Z,22.23
2018-09-14T15:53:21.469Z,22.52
2018-09-14T15:55:52.513Z,22.25
2018-09-14T15:58:23.562Z,22.49
2018-09-14T16:00:54.570Z,22.42
2018-09-14T16:03:25.486Z,22.27
2018-09-14T16:05:56.528Z,22.54
2018-09-14T16:08:27.543Z,22.50
2018-09-14T16:10:59.068Z,22.62
2018-09-14T16:13:30.769Z,22.72
2018-09-14T16:16:01.640Z,22.39
2018-09-14T16:18:32.555Z,22.66
2018-09-14T16:21:03.527Z,22.52
2018-09-14T16:23:34.540Z,22.49
2018-09-14T16:26:05.545Z,22.49
2018-09-14T16:28:36.537Z,22.49
2018-09-14T16:31:07.588Z,22.41
2018-09-14T16:33:38.772Z,22.42
2018-09-14T16:36:10.375Z,22.63
2018-09-14T16:38:41.988Z,22.50
2018-09-14T16:43:11.275Z,22.45
2018-09-14T16:45:41.381Z,22.43
2018-09-14T16:48:12.647Z,22.38
2018-09-14T16:50:43.625Z,22.19
2018-09-14T16:53:14.639Z,22.19
2018-09-14T16:55:45.544Z,22.15
2018-09-14T16:58:16.652Z,22.10
2018-09-14T17:00:47.503Z,22.23
2018-09-14T17:03:18.519Z,22.14
2018-09-14T17:05:49.533Z,22.18
2018-09-14T17:08:20.502Z,22.01
2018-09-14T17:10:51.603Z,21.98
2018-09-14T17:13:22.585Z,21.80
2018-09-14T17:15:53.501Z,21.85
2018-09-14T17:18:24.470Z,21.78
2018-09-14T17:20:55.488Z,21.98
2018-09-14T17:23:26.536Z,21.55
2018-09-14T17:25:57.537Z,21.58
2018-09-14T17:28:28.530Z,21.65
2018-09-14T17:30:59.642Z,21.61
2018-09-14T17:33:30.581Z,21.63
2018-09-14T17:36:01.578Z,21.56
2018-09-14T17:38:32.663Z,21.63
2018-09-14T17:41:03.616Z,21.52
2018-09-14T17:43:34.649Z,21.50
2018-09-14T17:46:05.695Z,21.51
2018-09-14T17:48:36.702Z,21.48
2018-09-14T17:51:07.577Z,21.43
2018-09-14T17:53:38.512Z,21.39
2018-09-14T17:56:09.516Z,21.18
2018-09-14T17:58:40.506Z,21.17
2018-09-14T18:01:11.497Z,21.14
2018-09-14T18:03:42.670Z,21.18
2018-09-14T18:06:14.010Z,21.20
2018-09-14T18:08:45.421Z,21.20
2018-09-14T18:11:16.514Z,21.17
2018-09-14T18:13:47.559Z,21.04
2018-09-14T18:16:18.523Z,21.12
2018-09-14T18:18:49.512Z,21.04
2018-09-14T18:21:20.530Z,21.03
2018-09-14T18:23:51.494Z,21.04
2018-09-14T18:26:22.544Z,21.04
2018-09-14T18:28:53.478Z,21.04
2018-09-14T18:31:24.629Z,21.01
2018-09-14T18:33:55.588Z,21.00
2018-09-14T18:36:31.853Z,20.94
2018-09-14T18:39:02.792Z,20.98
2018-09-14T18:41:34.757Z,20.96
2018-09-14T18:44:05.697Z,20.92
2018-09-14T18:46:36.757Z,20.86
2018-09-14T18:49:08.014Z,20.83
2018-09-14T18:51:39.377Z,20.79
2018-09-14T18:54:10.562Z,20.77
2018-09-14T18:56:41.469Z,20.77
2018-09-14T18:59:12.498Z,20.77
2018-09-14T19:01:44.184Z,20.73
2018-09-14T19:04:15.383Z,20.58
2018-09-14T19:06:46.539Z,20.55
2018-09-14T19:09:17.508Z,20.65
2018-09-14T19:14:32.628Z,20.64
2018-09-14T19:17:03.601Z,20.58
2018-09-14T19:19:34.661Z,20.53
2018-09-14T19:22:05.602Z,20.45
2018-09-14T19:24:37.214Z,20.42
2018-09-14T19:27:08.429Z,20.37
2018-09-14T19:29:39.599Z,20.36
2018-09-14T19:32:10.538Z,20.41
2018-09-14T19:34:41.502Z,20.37
2018-09-14T19:37:12.634Z,20.41
2018-09-14T19:39:43.559Z,20.34
2018-09-14T19:42:14.503Z,20.45
2018-09-14T19:44:45.706Z,20.37
2018-09-14T19:47:16.561Z,20.32
2018-09-14T19:49:47.606Z,20.29
2018-09-14T19:52:18.604Z,20.25
2018-09-14T19:54:49.517Z,20.27
2018-09-14T19:57:20.548Z,20.20
2018-09-14T19:59:51.531Z,20.20
2018-09-14T20:02:22.513Z,20.20
2018-09-14T20:04:53.521Z,20.12
2018-09-14T20:07:24.709Z,20.13
2018-09-14T20:09:55.780Z,20.11
2018-09-14T20:12:26.793Z,20.14
2018-09-14T20:14:58.015Z,20.18
2018-09-14T20:20:09.223Z,20.02
2018-09-14T20:22:40.777Z,20.03
2018-09-14T20:25:12.807Z,20.21
2018-09-14T20:27:43.657Z,20.14
2018-09-14T20:30:15.435Z,20.17
2018-09-14T20:32:46.553Z,20.07
2018-09-14T20:35:17.521Z,20.17
2018-09-14T20:37:49.206Z,20.14
2018-09-14T20:40:20.716Z,20.11
2018-09-14T20:42:51.776Z,19.94
2018-09-14T20:45:23.476Z,19.84
2018-09-14T20:47:54.631Z,19.76
2018-09-14T20:50:25.553Z,19.72
2018-09-14T20:52:57.493Z,19.55
2018-09-14T20:55:28.545Z,19.41
2018-09-14T20:57:59.709Z,19.45
2018-09-14T21:03:15.565Z,19.47
2018-09-14T21:05:46.558Z,19.33
2018-09-14T21:08:17.760Z,19.28
2018-09-14T21:10:48.589Z,19.30
2018-09-14T21:13:19.567Z,19.36
2018-09-14T21:15:50.498Z,19.29
2018-09-14T21:21:05.010Z,19.20
2018-09-14T21:23:36.389Z,19.00
2018-09-14T21:26:07.546Z,19.12
2018-09-14T21:28:38.680Z,18.99
2018-09-14T21:31:09.613Z,18.83
2018-09-14T21:33:40.755Z,18.72
2018-09-14T21:36:12.272Z,18.65
2018-09-14T21:38:42.692Z,18.69
2018-09-14T21:41:14.271Z,18.59
2018-09-14T21:43:44.679Z,18.64
2018-09-14T21:46:15.762Z,18.62
2018-09-14T21:48:46.845Z,18.70
2018-09-14T21:51:18.002Z,18.62
2018-09-14T21:53:49.381Z,18.52
2018-09-14T21:56:20.772Z,18.55
2018-09-14T21:58:51.654Z,18.53
2018-09-14T22:01:27.749Z,18.50
2018-09-14T22:04:00.560Z,18.42
2018-09-14T22:06:32.293Z,18.37
2018-09-14T22:11:47.691Z,18.23
2018-09-14T22:14:19.237Z,18.27
2018-09-14T22:16:50.501Z,18.13
2018-09-14T22:19:21.710Z,18.15
2018-09-14T22:24:34.689Z,18.00
2018-09-14T22:27:05.790Z,18.05
2018-09-14T22:29:37.604Z,18.06
2018-09-14T22:32:09.241Z,17.98
2018-09-14T22:34:40.594Z,17.86
2018-09-14T22:37:12.029Z,17.84
2018-09-14T22:39:43.560Z,17.73
2018-09-14T22:42:14.743Z,17.71
2018-09-14T22:44:46.033Z,17.67
2018-09-14T22:47:17.492Z,17.67
2018-09-14T22:49:48.580Z,17.73
2018-09-14T22:52:19.776Z,17.54
2018-09-14T22:54:51.211Z,17.53
2018-09-14T22:57:22.470Z,17.42
2018-09-14T22:59:53.629Z,17.54
2018-09-14T23:02:24.690Z,17.52
2018-09-14T23:04:55.802Z,17.54
2018-09-14T23:07:27.046Z,17.45
2018-09-14T23:09:58.501Z,17.35
2018-09-14T23:12:29.740Z,17.37
2018-09-14T23:15:01.380Z,17.35
2018-09-14T23:17:32.473Z,17.34
2018-09-14T23:20:03.801Z,17.29
2018-09-14T23:22:35.397Z,17.28
2018-09-14T23:25:06.734Z,17.32
2018-09-14T23:27:38.337Z,17.17
2018-09-14T23:30:09.646Z,17.20
2018-09-14T23:32:41.237Z,17.12
2018-09-14T23:35:12.652Z,17.11
2018-09-14T23:37:44.481Z,17.13
2018-09-14T23:40:15.718Z,17.06
2018-09-14T23:42:46.839Z,17.01
2018-09-14T23:45:17.778Z,17.04
2018-09-14T23:47:49.198Z,17.05
2018-09-14T23:50:20.539Z,17.02
2018-09-14T23:52:51.530Z,16.98
2018-09-14T23:55:22.496Z,17.00
2018-09-14T23:57:53.576Z,17.02
